createdAt,value
2022-12-29T00:01:03.318Z,78.89
2022-12-29T00:03:31.253Z,78.32
2022-12-29T00:05:59.533Z,79.52
2022-12-29T00:08:41.125Z,80.15
2022-12-29T00:11:10.072Z,80.45
2022-12-29T00:13:56.214Z,80.79
2022-12-29T00:16:25.807Z,80.83
2022-12-29T00:18:54.511Z,81.11
2022-12-29T00:21:42.096Z,82.09
2022-12-29T00:24:31.815Z,82.40
2022-12-29T00:27:31.945Z,81.97
2022-12-29T00:30:18.531Z,82.85
2022-12-29T00:33:05.195Z,82.39
2022-12-29T00:35:40.520Z,81.44
2022-12-29T00:38:28.349Z,82.44
2022-12-29T00:41:13.652Z,82.04
2022-12-29T00:44:10.777Z,82.77
2022-12-29T00:46:39.709Z,81.85
2022-12-29T00:49:28.228Z,81.50
2022-12-29T00:51:57.236Z,82.31
2022-12-29T00:54:25.616Z,82.04
2022-12-29T00:56:54.812Z,83.10
2022-12-29T00:59:25.159Z,83.76
2022-12-29T01:01:54.707Z,83.45
2022-12-29T01:04:26.442Z,82.33
2022-12-29T01:06:54.885Z,83.23
2022-12-29T01:09:40.900Z,82.68
2022-12-29T01:12:11.220Z,83.40
2022-12-29T01:14:40.018Z,83.34
2022-12-29T01:17:08.018Z,82.70
2022-12-29T01:19:41.307Z,82.57
2022-12-29T01:22:09.468Z,81.64
2022-12-29T01:24:37.345Z,82.03
2022-12-29T01:27:05.635Z,81.56
2022-12-29T01:29:33.397Z,81.70
2022-12-29T01:32:01.378Z,81.16
2022-12-29T01:34:30.151Z,81.05
2022-12-29T01:36:59.253Z,81.04
2022-12-29T01:39:27.525Z,80.40
2022-12-29T01:41:55.378Z,80.14
2022-12-29T01:44:52.353Z,79.98
2022-12-29T01:47:28.782Z,79.85
2022-12-29T01:49:59.108Z,79.53
2022-12-29T01:52:32.537Z,80.00
2022-12-29T01:55:02.014Z,78.93
2022-12-29T01:57:33.962Z,78.44
2022-12-29T02:00:05.343Z,78.18
2022-12-29T02:02:34.340Z,78.09
2022-12-29T02:05:07.956Z,78.83
2022-12-29T02:07:37.783Z,78.14
2022-12-29T02:10:06.899Z,78.17
2022-12-29T02:12:36.194Z,77.62
2022-12-29T02:15:06.303Z,76.97
2022-12-29T02:17:52.360Z,76.62
2022-12-29T02:20:50.796Z,76.73
2022-12-29T02:23:43.935Z,76.74
2022-12-29T02:26:45.037Z,76.66
2022-12-29T02:29:52.848Z,76.30
2022-12-29T02:32:32.300Z,75.25
2022-12-29T02:35:08.960Z,75.86
2022-12-29T02:37:45.887Z,75.32
2022-12-29T02:40:24.969Z,74.86
2022-12-29T02:43:01.350Z,74.78
2022-12-29T02:45:34.083Z,73.22
2022-12-29T02:48:12.000Z,72.22
2022-12-29T02:50:45.511Z,71.76
2022-12-29T02:53:16.818Z,71.58
2022-12-29T02:55:49.590Z,71.53
2022-12-29T02:58:20.194Z,71.56
2022-12-29T03:00:58.553Z,72.48
2022-12-29T03:03:43.009Z,73.02
2022-12-29T03:06:24.444Z,70.82
2022-12-29T03:08:59.777Z,72.25
2022-12-29T03:11:49.141Z,71.98
2022-12-29T03:14:43.230Z,70.78
2022-12-29T03:17:20.495Z,70.31
2022-12-29T03:19:55.036Z,70.22
2022-12-29T03:22:31.724Z,70.27
2022-12-29T03:25:03.833Z,69.89
2022-12-29T03:27:34.885Z,69.71
2022-12-29T03:30:07.074Z,69.08
2022-12-29T03:32:40.638Z,69.56
2022-12-29T03:35:14.583Z,67.73
2022-12-29T03:37:46.502Z,68.47
2022-12-29T03:40:14.529Z,67.61
2022-12-29T03:42:43.972Z,69.20
2022-12-29T03:45:13.395Z,66.91
2022-12-29T03:47:41.436Z,68.16
2022-12-29T03:50:11.187Z,68.04
2022-12-29T03:52:39.019Z,67.42
2022-12-29T03:55:08.106Z,67.26
2022-12-29T03:57:36.008Z,67.58
2022-12-29T04:00:04.901Z,68.04
2022-12-29T04:02:33.034Z,68.16
2022-12-29T04:05:00.922Z,67.90
2022-12-29T04:07:30.069Z,68.38
2022-12-29T04:09:58.146Z,69.11
2022-12-29T04:12:25.984Z,70.21
2022-12-29T04:14:54.078Z,70.86
2022-12-29T04:17:21.941Z,72.60
2022-12-29T04:19:50.058Z,72.78
2022-12-29T04:22:17.903Z,72.50
2022-12-29T04:24:47.599Z,71.54
2022-12-29T04:27:15.758Z,71.79
2022-12-29T04:29:43.741Z,71.95
2022-12-29T04:32:11.719Z,70.64
2022-12-29T04:34:39.912Z,71.55
2022-12-29T04:37:07.665Z,72.27
2022-12-29T04:39:35.434Z,71.79
2022-12-29T04:42:05.226Z,71.62
2022-12-29T04:44:33.042Z,71.29
2022-12-29T04:47:00.892Z,71.58
2022-12-29T04:49:29.077Z,69.90
2022-12-29T04:51:56.979Z,69.72
2022-12-29T04:54:24.787Z,68.81
2022-12-29T04:56:52.969Z,68.77
2022-12-29T04:59:22.243Z,66.97
2022-12-29T05:01:50.297Z,67.97
2022-12-29T05:04:18.221Z,67.69
2022-12-29T05:06:45.896Z,68.85
2022-12-29T05:09:13.800Z,67.26
2022-12-29T05:11:42.624Z,68.87
2022-12-29T05:14:10.323Z,69.16
2022-12-29T05:16:39.483Z,71.51
2022-12-29T05:19:07.855Z,70.06
2022-12-29T05:21:35.675Z,69.38
2022-12-29T05:24:03.574Z,70.65
2022-12-29T05:26:31.842Z,69.89
2022-12-29T05:29:00.841Z,71.84
2022-12-29T05:31:29.419Z,70.82
2022-12-29T05:33:59.063Z,71.61
2022-12-29T05:36:26.818Z,72.30
2022-12-29T05:38:54.866Z,72.08
2022-12-29T05:41:23.248Z,72.02
2022-12-29T05:43:51.201Z,72.19
2022-12-29T05:46:20.071Z,72.48
2022-12-29T05:48:48.467Z,72.38
2022-12-29T05:51:17.868Z,71.66
2022-12-29T05:53:46.203Z,72.26
2022-12-29T05:56:14.494Z,71.82
2022-12-29T05:58:42.369Z,72.86
2022-12-29T06:01:10.331Z,72.00
2022-12-29T06:03:41.742Z,72.55
2022-12-29T06:06:13.992Z,73.47
2022-12-29T06:08:43.691Z,73.70
2022-12-29T06:11:11.632Z,74.05
2022-12-29T06:13:39.630Z,74.28
2022-12-29T06:16:08.988Z,73.75
2022-12-29T06:18:37.024Z,74.24
2022-12-29T06:21:06.320Z,74.84
2022-12-29T06:23:34.709Z,74.52
2022-12-29T06:26:03.877Z,75.02
2022-12-29T06:28:31.742Z,74.68
2022-12-29T06:30:59.632Z,74.87
2022-12-29T06:33:27.568Z,74.21
2022-12-29T06:35:55.531Z,73.43
2022-12-29T06:38:23.981Z,72.82
2022-12-29T06:40:51.797Z,73.01
2022-12-29T06:43:20.994Z,72.38
2022-12-29T06:45:49.441Z,72.27
2022-12-29T06:48:17.644Z,71.85
2022-12-29T06:50:45.481Z,71.77
2022-12-29T06:53:13.807Z,71.67
2022-12-29T06:55:41.748Z,71.21
2022-12-29T06:58:09.656Z,71.23
2022-12-29T07:00:39.415Z,70.67
2022-12-29T07:03:07.363Z,70.55
2022-12-29T07:05:35.473Z,71.60
2022-12-29T07:08:03.832Z,70.97
2022-12-29T07:10:31.831Z,71.47
2022-12-29T07:13:00.481Z,71.04
2022-12-29T07:15:28.858Z,71.54
2022-12-29T07:17:58.340Z,71.90
2022-12-29T07:20:27.137Z,71.01
2022-12-29T07:22:55.804Z,71.17
2022-12-29T07:25:23.941Z,71.45
2022-12-29T07:27:51.969Z,72.07
2022-12-29T07:30:20.476Z,71.51
2022-12-29T07:32:48.522Z,70.81
2022-12-29T07:35:17.843Z,71.75
2022-12-29T07:37:46.312Z,71.02
2022-12-29T07:40:14.236Z,70.09
2022-12-29T07:42:42.190Z,69.57
2022-12-29T07:45:11.901Z,69.33
2022-12-29T07:47:40.382Z,70.29
2022-12-29T07:50:08.800Z,69.58
2022-12-29T07:52:38.041Z,71.19
2022-12-29T07:55:06.669Z,70.98
2022-12-29T07:57:34.529Z,71.82
2022-12-29T08:00:03.110Z,71.53
2022-12-29T08:02:30.989Z,71.74
2022-12-29T08:04:58.927Z,72.14
2022-12-29T08:07:26.920Z,71.11
2022-12-29T08:09:56.326Z,71.70
2022-12-29T08:12:24.240Z,69.50
2022-12-29T08:14:52.689Z,69.44
2022-12-29T08:17:20.642Z,69.36
2022-12-29T08:19:48.552Z,70.81
2022-12-29T08:22:17.153Z,71.20
2022-12-29T08:24:45.162Z,70.68
2022-12-29T08:27:20.438Z,70.90
2022-12-29T08:29:49.440Z,70.55
2022-12-29T08:32:17.653Z,70.34
2022-12-29T08:34:45.607Z,68.35
2022-12-29T08:37:13.966Z,67.21
2022-12-29T08:39:41.939Z,66.90
2022-12-29T08:42:09.870Z,65.69
2022-12-29T08:44:39.390Z,65.48
2022-12-29T08:47:07.274Z,65.44
2022-12-29T08:49:35.791Z,64.63
2022-12-29T08:52:03.740Z,62.93
2022-12-29T08:54:32.149Z,63.12
2022-12-29T08:57:00.586Z,63.19
2022-12-29T08:59:28.779Z,62.91
2022-12-29T09:01:58.197Z,64.36
2022-12-29T09:04:27.158Z,63.64
2022-12-29T09:06:55.456Z,63.22
2022-12-29T09:09:23.624Z,63.69
2022-12-29T09:11:51.865Z,63.08
2022-12-29T09:14:20.150Z,62.52
2022-12-29T09:17:05.703Z,62.19
2022-12-29T09:19:34.947Z,62.14
2022-12-29T09:22:03.923Z,62.45
2022-12-29T09:24:32.494Z,61.60
2022-12-29T09:27:00.651Z,62.24
2022-12-29T09:29:28.464Z,61.11
2022-12-29T09:31:57.027Z,61.55
2022-12-29T09:34:25.232Z,61.48
2022-12-29T09:36:54.764Z,60.92
2022-12-29T09:39:22.860Z,60.33
2022-12-29T09:42:01.289Z,60.32
2022-12-29T09:44:37.585Z,60.16
2022-12-29T09:47:06.239Z,60.68
2022-12-29T09:49:44.527Z,59.26
2022-12-29T09:52:17.846Z,60.41
2022-12-29T09:55:00.557Z,59.57
2022-12-29T09:57:38.175Z,59.54
2022-12-29T10:00:14.809Z,59.50
2022-12-29T10:02:44.916Z,58.87
2022-12-29T10:05:25.264Z,58.62
2022-12-29T10:08:04.561Z,58.70
2022-12-29T10:10:40.613Z,58.04
2022-12-29T10:13:27.194Z,58.02
2022-12-29T10:16:04.591Z,57.43
2022-12-29T10:18:52.677Z,56.82
2022-12-29T10:21:31.214Z,56.45
2022-12-29T10:24:04.961Z,56.12
2022-12-29T10:26:40.615Z,56.08
2022-12-29T10:29:16.498Z,55.92
2022-12-29T10:31:49.267Z,55.69
2022-12-29T10:34:24.226Z,55.64
2022-12-29T10:36:59.392Z,54.48
2022-12-29T10:39:35.048Z,54.12
2022-12-29T10:42:12.436Z,60.26
2022-12-29T10:44:40.976Z,63.71
2022-12-29T10:47:16.148Z,62.05
2022-12-29T10:49:47.041Z,61.20
2022-12-29T10:52:17.732Z,59.42
2022-12-29T10:54:53.273Z,57.15
2022-12-29T10:57:28.806Z,56.76
2022-12-29T10:59:56.765Z,56.98
2022-12-29T11:02:46.331Z,55.98
2022-12-29T11:05:24.911Z,54.84
2022-12-29T11:07:59.039Z,54.93
2022-12-29T11:10:39.933Z,55.65
2022-12-29T11:13:16.629Z,55.18
2022-12-29T11:15:46.829Z,54.37
2022-12-29T11:18:24.242Z,53.77
2022-12-29T11:20:53.913Z,54.12
2022-12-29T11:23:32.905Z,54.74
2022-12-29T11:26:17.212Z,55.50
2022-12-29T11:28:48.030Z,57.34
2022-12-29T11:31:19.450Z,55.58
2022-12-29T11:33:48.608Z,55.62
2022-12-29T11:36:21.235Z,54.67
2022-12-29T11:38:52.542Z,54.94
2022-12-29T11:41:25.851Z,54.41
2022-12-29T11:43:56.075Z,54.81
2022-12-29T11:46:28.584Z,54.51
2022-12-29T11:49:00.105Z,54.35
2022-12-29T11:51:30.335Z,54.30
2022-12-29T11:54:01.126Z,56.08
2022-12-29T11:56:41.231Z,56.83
2022-12-29T11:59:43.258Z,56.44
2022-12-29T12:02:38.818Z,56.11
2022-12-29T12:05:17.933Z,56.17
2022-12-29T12:07:49.282Z,56.50
2022-12-29T12:10:26.845Z,64.03
2022-12-29T12:13:04.009Z,64.42
2022-12-29T12:15:44.961Z,63.66
2022-12-29T12:18:23.512Z,63.08
2022-12-29T12:20:56.707Z,61.66
2022-12-29T12:23:40.735Z,60.64
2022-12-29T12:26:14.578Z,59.99
2022-12-29T12:28:53.151Z,59.71
2022-12-29T12:31:36.218Z,59.49
2022-12-29T12:34:13.568Z,58.78
2022-12-29T12:37:10.512Z,59.42
2022-12-29T12:39:49.958Z,59.31
2022-12-29T12:42:32.760Z,59.54
2022-12-29T12:45:17.226Z,59.21
2022-12-29T12:48:01.566Z,59.71
2022-12-29T12:50:41.609Z,60.33
2022-12-29T12:53:32.243Z,59.36
2022-12-29T12:56:18.767Z,60.42
2022-12-29T12:58:55.371Z,59.48
2022-12-29T13:01:38.713Z,59.45
2022-12-29T13:04:45.790Z,60.14
2022-12-29T13:07:24.472Z,59.93
2022-12-29T13:10:06.223Z,60.05
2022-12-29T13:12:41.731Z,60.20
2022-12-29T13:15:23.496Z,60.04
2022-12-29T13:18:01.421Z,59.63
2022-12-29T13:20:40.278Z,59.82
2022-12-29T13:23:16.123Z,59.62
2022-12-29T13:25:53.148Z,59.13
2022-12-29T13:28:28.314Z,59.30
2022-12-29T13:31:02.821Z,59.27
2022-12-29T13:33:43.551Z,59.63
2022-12-29T13:36:22.467Z,59.65
2022-12-29T13:38:54.241Z,59.88
2022-12-29T13:41:32.367Z,60.74
2022-12-29T13:44:03.759Z,59.99
2022-12-29T13:46:39.452Z,60.49
2022-12-29T13:49:15.036Z,60.74
2022-12-29T13:51:49.646Z,61.41
2022-12-29T13:54:29.812Z,61.41
2022-12-29T13:57:09.049Z,61.71
2022-12-29T13:59:45.956Z,61.33
2022-12-29T14:02:23.373Z,60.96
2022-12-29T14:05:01.502Z,61.50
2022-12-29T14:07:30.461Z,61.63
2022-12-29T14:09:59.599Z,62.40
2022-12-29T14:12:38.414Z,62.14
2022-12-29T14:15:22.594Z,62.49
2022-12-29T14:18:12.521Z,62.70
2022-12-29T14:20:51.996Z,62.94
2022-12-29T14:23:30.628Z,63.54
2022-12-29T14:26:11.515Z,63.83
2022-12-29T14:28:41.265Z,64.26
2022-12-29T14:31:42.417Z,64.13
2022-12-29T14:34:40.622Z,64.83
2022-12-29T14:37:26.747Z,64.71
2022-12-29T14:40:08.654Z,64.63
2022-12-29T14:42:36.916Z,64.26
2022-12-29T14:45:08.980Z,64.30
2022-12-29T14:47:42.207Z,64.20
2022-12-29T14:50:16.440Z,65.76
2022-12-29T14:52:50.168Z,65.73
2022-12-29T14:55:40.526Z,66.08
2022-12-29T14:58:16.294Z,66.24
2022-12-29T15:00:44.979Z,65.98
2022-12-29T15:03:21.879Z,66.60
2022-12-29T15:05:53.389Z,66.65
2022-12-29T15:08:23.820Z,66.88
2022-12-29T15:10:57.678Z,67.05
2022-12-29T15:13:34.240Z,65.92
2022-12-29T15:16:02.600Z,65.93
2022-12-29T15:18:33.400Z,66.76
2022-12-29T15:21:03.735Z,66.11
2022-12-29T15:23:33.834Z,65.85
2022-12-29T15:26:04.113Z,66.74
2022-12-29T15:28:40.191Z,67.05
2022-12-29T15:31:13.989Z,67.69
2022-12-29T15:33:45.350Z,68.20
2022-12-29T15:36:15.567Z,68.85
2022-12-29T15:38:43.478Z,68.98
2022-12-29T15:41:28.392Z,68.77
2022-12-29T15:44:06.917Z,68.30
2022-12-29T15:46:35.431Z,69.46
2022-12-29T15:49:07.886Z,69.60
2022-12-29T15:51:39.159Z,70.39
2022-12-29T15:54:08.253Z,70.56
2022-12-29T15:56:37.156Z,70.74
2022-12-29T15:59:05.967Z,71.23
2022-12-29T16:01:36.657Z,71.78
2022-12-29T16:04:09.398Z,71.49
2022-12-29T16:06:39.636Z,71.88
2022-12-29T16:09:09.270Z,71.47
2022-12-29T16:11:40.173Z,71.09
2022-12-29T16:14:12.280Z,71.10
2022-12-29T16:16:42.252Z,70.32
2022-12-29T16:19:16.339Z,70.82
2022-12-29T16:21:45.835Z,70.43
2022-12-29T16:24:18.304Z,70.49
2022-12-29T16:26:51.765Z,70.04
2022-12-29T16:29:25.004Z,70.14
2022-12-29T16:32:01.588Z,69.75
2022-12-29T16:34:33.820Z,69.94
2022-12-29T16:37:03.769Z,69.59
2022-12-29T16:39:40.442Z,69.65
2022-12-29T16:42:38.695Z,69.77
2022-12-29T16:45:49.328Z,72.24
2022-12-29T16:48:22.135Z,74.52
2022-12-29T16:50:51.998Z,74.14
2022-12-29T16:53:26.616Z,75.59
2022-12-29T16:55:56.656Z,76.06
2022-12-29T16:58:28.070Z,77.49
2022-12-29T17:00:58.108Z,77.01
2022-12-29T17:03:33.414Z,77.20
2022-12-29T17:06:02.946Z,76.91
2022-12-29T17:08:30.792Z,78.14
2022-12-29T17:11:16.684Z,77.93
2022-12-29T17:13:44.764Z,78.36
2022-12-29T17:16:14.052Z,77.08
2022-12-29T17:18:42.029Z,79.45
2022-12-29T17:21:11.483Z,79.69
2022-12-29T17:23:39.111Z,80.87
2022-12-29T17:26:11.707Z,85.44
2022-12-29T17:28:40.075Z,87.71
2022-12-29T17:31:09.468Z,86.76
2022-12-29T17:33:39.690Z,87.91
2022-12-29T17:36:08.558Z,88.72
2022-12-29T17:38:38.831Z,89.20
2022-12-29T17:41:13.805Z,89.06
2022-12-29T17:43:41.964Z,89.10
2022-12-29T17:46:10.048Z,89.75
2022-12-29T17:48:38.421Z,89.06
2022-12-29T17:51:07.078Z,88.72
2022-12-29T17:53:34.987Z,89.28
2022-12-29T17:56:04.479Z,89.55
2022-12-29T17:58:34.110Z,88.91
2022-12-29T18:01:03.852Z,88.65
2022-12-29T18:03:35.276Z,88.67
2022-12-29T18:06:06.739Z,88.26
2022-12-29T18:08:36.868Z,89.43
2022-12-29T18:11:11.038Z,89.63
2022-12-29T18:13:45.930Z,89.48
2022-12-29T18:16:15.603Z,90.48
2022-12-29T18:18:43.574Z,90.33
2022-12-29T18:21:18.652Z,90.05
2022-12-29T18:23:47.549Z,90.02
2022-12-29T18:26:25.624Z,89.54
2022-12-29T18:28:55.737Z,89.06
2022-12-29T18:31:26.886Z,89.84
2022-12-29T18:33:55.691Z,89.15
2022-12-29T18:36:24.245Z,89.81
2022-12-29T18:38:54.047Z,88.93
2022-12-29T18:41:25.734Z,89.72
2022-12-29T18:43:53.678Z,89.91
2022-12-29T18:46:23.515Z,89.57
2022-12-29T18:48:51.854Z,90.17
2022-12-29T18:51:22.469Z,91.03
2022-12-29T18:53:53.025Z,91.00
2022-12-29T18:56:22.465Z,90.66
2022-12-29T18:58:53.478Z,92.07
2022-12-29T19:01:23.780Z,91.92
2022-12-29T19:03:52.380Z,91.54
2022-12-29T19:06:22.180Z,91.24
2022-12-29T19:08:50.761Z,91.03
2022-12-29T19:11:19.246Z,90.73
2022-12-29T19:14:07.456Z,90.66
2022-12-29T19:16:35.816Z,90.29
2022-12-29T19:19:09.301Z,90.03
2022-12-29T19:21:39.437Z,89.99
2022-12-29T19:24:08.564Z,90.71
2022-12-29T19:26:39.293Z,90.50
2022-12-29T19:29:14.775Z,91.23
2022-12-29T19:31:43.285Z,90.29
2022-12-29T19:34:14.301Z,90.44
2022-12-29T19:36:42.636Z,90.54
2022-12-29T19:39:35.803Z,91.53
2022-12-29T19:42:05.593Z,91.05
2022-12-29T19:44:35.384Z,90.72
2022-12-29T19:47:04.349Z,90.46
2022-12-29T19:49:33.236Z,90.93
2022-12-29T19:52:01.846Z,90.85
2022-12-29T19:54:29.947Z,90.88
2022-12-29T19:56:58.320Z,90.20
2022-12-29T19:59:26.945Z,90.02
2022-12-29T20:01:57.111Z,90.03
2022-12-29T20:04:25.584Z,90.21
2022-12-29T20:06:54.815Z,90.17
2022-12-29T20:09:23.181Z,90.21
2022-12-29T20:11:51.862Z,90.26
2022-12-29T20:14:20.170Z,90.33
2022-12-29T20:17:10.328Z,89.75
2022-12-29T20:19:40.393Z,90.20
2022-12-29T20:22:10.109Z,90.35
2022-12-29T20:24:43.887Z,90.35
2022-12-29T20:27:17.064Z,89.61
2022-12-29T20:29:46.371Z,90.52
2022-12-29T20:32:16.887Z,90.12
2022-12-29T20:34:47.524Z,90.46
2022-12-29T20:37:17.376Z,90.33
2022-12-29T20:39:46.032Z,89.91
2022-12-29T20:42:14.726Z,90.10
2022-12-29T20:44:42.786Z,90.16
2022-12-29T20:47:11.367Z,90.34
2022-12-29T20:49:39.560Z,90.56
2022-12-29T20:52:09.525Z,90.53
2022-12-29T20:54:39.699Z,90.26
2022-12-29T20:57:08.620Z,89.50
2022-12-29T20:59:37.001Z,90.31
2022-12-29T21:02:05.317Z,90.22
2022-12-29T21:05:05.078Z,90.18
2022-12-29T21:07:23.134Z,89.72
2022-12-29T21:09:51.584Z,90.09
2022-12-29T21:12:20.021Z,90.17
2022-12-29T21:14:48.103Z,90.16
2022-12-29T21:17:16.651Z,90.50
2022-12-29T21:19:44.773Z,90.13
2022-12-29T21:22:13.514Z,89.55
2022-12-29T21:24:43.008Z,89.01
2022-12-29T21:27:11.386Z,89.08
2022-12-29T21:29:39.458Z,88.96
2022-12-29T21:32:08.117Z,89.21
2022-12-29T21:34:36.502Z,88.90
2022-12-29T21:37:04.739Z,88.85
2022-12-29T21:39:32.901Z,88.96
2022-12-29T21:42:02.729Z,87.59
2022-12-29T21:44:48.310Z,89.07
2022-12-29T21:47:16.798Z,88.45
2022-12-29T21:49:44.973Z,89.06
2022-12-29T21:52:13.407Z,89.25
2022-12-29T21:54:58.569Z,89.98
2022-12-29T21:57:45.414Z,89.57
2022-12-29T22:00:31.569Z,90.09
2022-12-29T22:03:23.083Z,89.78
2022-12-29T22:06:11.530Z,89.90
2022-12-29T22:08:57.936Z,89.61
2022-12-29T22:11:43.650Z,89.06
2022-12-29T22:14:13.080Z,89.16
2022-12-29T22:16:41.755Z,89.21
2022-12-29T22:19:11.172Z,88.47
2022-12-29T22:21:39.160Z,88.89
2022-12-29T22:24:08.805Z,89.12
2022-12-29T22:26:37.549Z,88.02
2022-12-29T22:29:05.793Z,88.57
2022-12-29T22:31:35.409Z,88.11
2022-12-29T22:34:05.793Z,88.31
2022-12-29T22:36:34.510Z,87.91
2022-12-29T22:39:02.574Z,88.04
2022-12-29T22:41:31.092Z,87.80
2022-12-29T22:43:59.071Z,87.14
2022-12-29T22:46:27.596Z,88.81
2022-12-29T22:48:57.659Z,88.08
2022-12-29T22:51:26.850Z,88.41
2022-12-29T22:53:54.974Z,87.93
2022-12-29T22:56:23.611Z,87.21
2022-12-29T22:58:52.338Z,87.85
2022-12-29T23:01:23.312Z,87.00
2022-12-29T23:03:51.727Z,87.91
2022-12-29T23:06:21.773Z,87.48
2022-12-29T23:08:50.037Z,87.21
2022-12-29T23:11:18.770Z,87.11
2022-12-29T23:13:46.987Z,86.74
2022-12-29T23:16:16.604Z,87.07
2022-12-29T23:18:45.256Z,86.83
2022-12-29T23:21:13.418Z,87.35
2022-12-29T23:23:56.231Z,87.16
2022-12-29T23:26:27.339Z,86.94
2022-12-29T23:29:00.195Z,87.30
2022-12-29T23:31:29.697Z,87.82
2022-12-29T23:33:58.195Z,87.27
2022-12-29T23:36:26.623Z,86.57
2022-12-29T23:38:57.007Z,86.38
2022-12-29T23:41:26.103Z,86.76
2022-12-29T23:43:54.375Z,86.83
2022-12-29T23:46:25.320Z,86.64
2022-12-29T23:48:53.687Z,86.31
2022-12-29T23:51:22.378Z,86.54
2022-12-29T23:53:50.599Z,85.36
2022-12-29T23:56:22.517Z,86.79
2022-12-29T23:58:51.399Z,86.69
